sensor_id;sensor_type;location;lat;lon;timestamp;pressure;altitude;pressure_sealevel;temperature;humidity
26487;BME280;14425;56.136;40.360;2023-05-24T00:01:30;99704.75;;;17.54;84.93
26487;BME280;14425;56.136;40.360;2023-05-24T00:03:55;99714.31;;;17.54;85.66
26487;BME280;14425;56.136;40.360;2023-05-24T00:06:24;99702.13;;;17.48;86.08
26487;BME280;14425;56.136;40.360;2023-05-24T00:08:53;99695.53;;;17.95;79.25
26487;BME280;14425;56.136;40.360;2023-05-24T00:11:19;99693.63;;;17.77;84.80
26487;BME280;14425;56.136;40.360;2023-05-24T00:13:45;99693.53;;;17.66;85.57
26487;BME280;14425;56.136;40.360;2023-05-24T00:16:11;99688.28;;;17.59;85.00
26487;BME280;14425;56.136;40.360;2023-05-24T00:18:37;99681.44;;;17.74;85.46
26487;BME280;14425;56.136;40.360;2023-05-24T00:21:06;99681.06;;;17.24;91.66
26487;BME280;14425;56.136;40.360;2023-05-24T00:23:33;99672.19;;;17.05;96.26
26487;BME280;14425;56.136;40.360;2023-05-24T00:25:59;99664.00;;;16.71;99.10
26487;BME280;14425;56.136;40.360;2023-05-24T00:28:26;99669.19;;;16.68;100.00
26487;BME280;14425;56.136;40.360;2023-05-24T00:30:52;99661.66;;;16.92;97.87
26487;BME280;14425;56.136;40.360;2023-05-24T00:33:17;99656.47;;;16.95;97.89
26487;BME280;14425;56.136;40.360;2023-05-24T00:35:43;99656.13;;;16.65;100.00
26487;BME280;14425;56.136;40.360;2023-05-24T00:38:09;99652.81;;;16.81;99.88
26487;BME280;14425;56.136;40.360;2023-05-24T00:40:34;99646.53;;;16.60;100.00
26487;BME280;14425;56.136;40.360;2023-05-24T00:43:00;99648.16;;;16.49;100.00
26487;BME280;14425;56.136;40.360;2023-05-24T00:45:25;99643.63;;;16.33;100.00
26487;BME280;14425;56.136;40.360;2023-05-24T00:47:51;99642.66;;;16.26;100.00
26487;BME280;14425;56.136;40.360;2023-05-24T00:50:17;99648.78;;;16.30;100.00
26487;BME280;14425;56.136;40.360;2023-05-24T00:52:43;99643.56;;;16.30;100.00
26487;BME280;14425;56.136;40.360;2023-05-24T00:55:11;99642.78;;;16.35;100.00
26487;BME280;14425;56.136;40.360;2023-05-24T00:57:36;99648.03;;;16.40;100.00
26487;BME280;14425;56.136;40.360;2023-05-24T01:00:03;99640.47;;;16.61;100.00
26487;BME280;14425;56.136;40.360;2023-05-24T01:02:31;99641.56;;;16.82;100.00
26487;BME280;14425;56.136;40.360;2023-05-24T01:04:57;99638.78;;;16.63;100.00
26487;BME280;14425;56.136;40.360;2023-05-24T01:07:36;99635.28;;;16.63;100.00
26487;BME280;14425;56.136;40.360;2023-05-24T01:18:13;99639.25;;;17.13;94.29
26487;BME280;14425;56.136;40.360;2023-05-24T01:20:41;99634.97;;;17.15;91.68
26487;BME280;14425;56.136;40.360;2023-05-24T01:23:22;99635.06;;;17.30;88.09
26487;BME280;14425;56.136;40.360;2023-05-24T01:26:23;99638.34;;;17.09;89.52
26487;BME280;14425;56.136;40.360;2023-05-24T01:28:55;99635.00;;;17.24;88.34
26487;BME280;14425;56.136;40.360;2023-05-24T01:31:21;99630.84;;;17.48;85.62
26487;BME280;14425;56.136;40.360;2023-05-24T01:33:47;99632.66;;;17.55;83.67
26487;BME280;14425;56.136;40.360;2023-05-24T01:36:12;99639.50;;;17.41;86.04
26487;BME280;14425;56.136;40.360;2023-05-24T01:38:38;99630.59;;;17.14;87.49
26487;BME280;14425;56.136;40.360;2023-05-24T01:43:47;99638.22;;;16.92;90.18
26487;BME280;14425;56.136;40.360;2023-05-24T01:46:34;99634.03;;;17.13;88.28
26487;BME280;14425;56.136;40.360;2023-05-24T01:52:04;99628.06;;;17.26;87.27
26487;BME280;14425;56.136;40.360;2023-05-24T01:54:32;99628.22;;;17.42;86.75
26487;BME280;14425;56.136;40.360;2023-05-24T01:57:01;99619.56;;;17.49;84.26
26487;BME280;14425;56.136;40.360;2023-05-24T01:59:30;99623.09;;;17.55;85.07
26487;BME280;14425;56.136;40.360;2023-05-24T02:01:57;99617.84;;;17.51;84.56
26487;BME280;14425;56.136;40.360;2023-05-24T02:04:23;99615.41;;;17.79;82.85
26487;BME280;14425;56.136;40.360;2023-05-24T02:06:48;99621.06;;;17.19;86.70
26487;BME280;14425;56.136;40.360;2023-05-24T02:09:14;99615.84;;;17.16;88.29
26487;BME280;14425;56.136;40.360;2023-05-24T02:11:40;99616.97;;;17.49;85.82
26487;BME280;14425;56.136;40.360;2023-05-24T02:14:05;99614.66;;;17.94;82.06
26487;BME280;14425;56.136;40.360;2023-05-24T02:16:31;99606.84;;;17.98;80.25
26487;BME280;14425;56.136;40.360;2023-05-24T02:18:57;99612.78;;;17.76;82.43
26487;BME280;14425;56.136;40.360;2023-05-24T02:21:27;99611.81;;;17.61;82.17
26487;BME280;14425;56.136;40.360;2023-05-24T02:23:53;99612.81;;;17.82;80.59
26487;BME280;14425;56.136;40.360;2023-05-24T02:26:18;99611.16;;;17.90;79.26
26487;BME280;14425;56.136;40.360;2023-05-24T02:28:44;99616.97;;;17.50;83.91
26487;BME280;14425;56.136;40.360;2023-05-24T02:31:09;99621.25;;;17.42;84.25
26487;BME280;14425;56.136;40.360;2023-05-24T02:33:35;99618.63;;;17.39;84.38
26487;BME280;14425;56.136;40.360;2023-05-24T02:36:01;99608.44;;;17.73;80.25
26487;BME280;14425;56.136;40.360;2023-05-24T02:38:27;99608.28;;;17.54;82.83
26487;BME280;14425;56.136;40.360;2023-05-24T02:40:52;99605.63;;;17.42;84.48
26487;BME280;14425;56.136;40.360;2023-05-24T02:43:18;99602.13;;;17.39;83.79
26487;BME280;14425;56.136;40.360;2023-05-24T02:45:43;99603.94;;;17.50;82.34
26487;BME280;14425;56.136;40.360;2023-05-24T02:48:09;99590.97;;;17.63;81.79
26487;BME280;14425;56.136;40.360;2023-05-24T02:50:35;99585.94;;;17.92;80.23
26487;BME280;14425;56.136;40.360;2023-05-24T02:53:01;99586.91;;;18.17;75.99
26487;BME280;14425;56.136;40.360;2023-05-24T02:55:27;99592.16;;;18.23;76.21
26487;BME280;14425;56.136;40.360;2023-05-24T02:57:54;99590.44;;;18.30;74.14
26487;BME280;14425;56.136;40.360;2023-05-24T03:00:20;99590.47;;;18.42;74.13
26487;BME280;14425;56.136;40.360;2023-05-24T03:02:45;99593.88;;;18.17;76.57
26487;BME280;14425;56.136;40.360;2023-05-24T03:05:12;99584.16;;;17.85;78.90
26487;BME280;14425;56.136;40.360;2023-05-24T03:07:37;99586.94;;;18.33;76.29
26487;BME280;14425;56.136;40.360;2023-05-24T03:10:03;99573.16;;;18.83;72.19
26487;BME280;14425;56.136;40.360;2023-05-24T03:12:30;99573.09;;;18.75;72.55
26487;BME280;14425;56.136;40.360;2023-05-24T03:14:56;99570.50;;;18.63;76.25
26487;BME280;14425;56.136;40.360;2023-05-24T03:17:21;99572.06;;;18.01;78.14
26487;BME280;14425;56.136;40.360;2023-05-24T03:19:47;99563.41;;;18.13;77.62
26487;BME280;14425;56.136;40.360;2023-05-24T03:22:12;99567.84;;;18.44;76.18
26487;BME280;14425;56.136;40.360;2023-05-24T03:24:38;99564.41;;;18.56;73.67
26487;BME280;14425;56.136;40.360;2023-05-24T03:27:05;99552.09;;;18.12;78.96
26487;BME280;14425;56.136;40.360;2023-05-24T03:29:30;99554.69;;;18.01;78.57
26487;BME280;14425;56.136;40.360;2023-05-24T03:31:56;99557.13;;;17.72;80.25
26487;BME280;14425;56.136;40.360;2023-05-24T03:34:22;99560.75;;;18.00;78.24
26487;BME280;14425;56.136;40.360;2023-05-24T03:36:47;99539.13;;;18.51;72.28
26487;BME280;14425;56.136;40.360;2023-05-24T03:39:13;99548.66;;;18.27;74.42
26487;BME280;14425;56.136;40.360;2023-05-24T03:41:38;99545.16;;;18.19;74.58
26487;BME280;14425;56.136;40.360;2023-05-24T03:44:04;99549.53;;;18.32;74.38
26487;BME280;14425;56.136;40.360;2023-05-24T03:46:30;99545.25;;;18.63;72.14
26487;BME280;14425;56.136;40.360;2023-05-24T03:48:55;99533.06;;;18.75;70.87
26487;BME280;14425;56.136;40.360;2023-05-24T03:51:21;99538.31;;;18.87;69.70
26487;BME280;14425;56.136;40.360;2023-05-24T03:53:55;99537.47;;;18.93;69.39
26487;BME280;14425;56.136;40.360;2023-05-24T03:56:21;99536.56;;;19.06;69.08
26487;BME280;14425;56.136;40.360;2023-05-24T03:58:46;99538.25;;;18.61;74.13
26487;BME280;14425;56.136;40.360;2023-05-24T04:01:12;99544.25;;;18.10;76.35
26487;BME280;14425;56.136;40.360;2023-05-24T04:03:37;99539.03;;;18.10;77.40
26487;BME280;14425;56.136;40.360;2023-05-24T04:06:05;99552.75;;;17.72;81.22
26487;BME280;14425;56.136;40.360;2023-05-24T04:08:30;99557.94;;;17.66;82.85
26487;BME280;14425;56.136;40.360;2023-05-24T04:10:56;99560.59;;;17.76;82.24
26487;BME280;14425;56.136;40.360;2023-05-24T04:13:21;99561.63;;;18.05;80.52
26487;BME280;14425;56.136;40.360;2023-05-24T04:15:47;99556.53;;;18.47;78.02
26487;BME280;14425;56.136;40.360;2023-05-24T04:18:12;99546.03;;;18.24;77.53
26487;BME280;14425;56.136;40.360;2023-05-24T04:20:38;99550.19;;;17.79;81.38
26487;BME280;14425;56.136;40.360;2023-05-24T04:23:03;99562.28;;;17.63;81.86
26487;BME280;14425;56.136;40.360;2023-05-24T04:25:29;99554.56;;;17.84;81.87
26487;BME280;14425;56.136;40.360;2023-05-24T04:27:54;99560.53;;;17.57;82.63
26487;BME280;14425;56.136;40.360;2023-05-24T04:30:21;99564.88;;;17.64;83.67
26487;BME280;14425;56.136;40.360;2023-05-24T04:32:46;99558.66;;;17.38;86.29
26487;BME280;14425;56.136;40.360;2023-05-24T04:35:13;99565.47;;;17.17;90.78
26487;BME280;14425;56.136;40.360;2023-05-24T04:37:38;99571.38;;;16.94;94.44
26487;BME280;14425;56.136;40.360;2023-05-24T04:40:06;99568.13;;;16.31;100.00
26487;BME280;14425;56.136;40.360;2023-05-24T04:42:33;99572.31;;;16.18;100.00
26487;BME280;14425;56.136;40.360;2023-05-24T04:44:59;99573.06;;;16.06;100.00
26487;BME280;14425;56.136;40.360;2023-05-24T04:47:24;99570.66;;;16.22;100.00
26487;BME280;14425;56.136;40.360;2023-05-24T04:49:50;99574.75;;;16.04;100.00
26487;BME280;14425;56.136;40.360;2023-05-24T04:52:16;99578.03;;;15.88;100.00
26487;BME280;14425;56.136;40.360;2023-05-24T04:54:42;99576.03;;;15.71;100.00
26487;BME280;14425;56.136;40.360;2023-05-24T04:57:08;99575.09;;;15.65;100.00
26487;BME280;14425;56.136;40.360;2023-05-24T04:59:33;99577.72;;;15.66;100.00
26487;BME280;14425;56.136;40.360;2023-05-24T05:01:59;99581.16;;;15.64;100.00
26487;BME280;14425;56.136;40.360;2023-05-24T05:04:24;99584.69;;;15.69;100.00
26487;BME280;14425;56.136;40.360;2023-05-24T05:06:50;99586.34;;;15.65;100.00
26487;BME280;14425;56.136;40.360;2023-05-24T05:09:16;99581.00;;;15.53;100.00
26487;BME280;14425;56.136;40.360;2023-05-24T05:11:45;99574.28;;;15.69;100.00
26487;BME280;14425;56.136;40.360;2023-05-24T05:14:10;99574.34;;;15.74;100.00
26487;BME280;14425;56.136;40.360;2023-05-24T05:16:36;99564.59;;;16.24;100.00
26487;BME280;14425;56.136;40.360;2023-05-24T05:19:02;99572.56;;;16.40;100.00
26487;BME280;14425;56.136;40.360;2023-05-24T05:21:32;99571.66;;;16.36;100.00
26487;BME280;14425;56.136;40.360;2023-05-24T05:24:01;99569.94;;;16.38;100.00
26487;BME280;14425;56.136;40.360;2023-05-24T05:26:28;99582.91;;;16.34;100.00
26487;BME280;14425;56.136;40.360;2023-05-24T05:28:55;99573.34;;;16.33;100.00
26487;BME280;14425;56.136;40.360;2023-05-24T05:31:21;99566.38;;;16.27;100.00
26487;BME280;14425;56.136;40.360;2023-05-24T05:33:47;99558.59;;;16.32;100.00
26487;BME280;14425;56.136;40.360;2023-05-24T05:36:13;99553.88;;;16.84;100.00
26487;BME280;14425;56.136;40.360;2023-05-24T05:38:38;99552.84;;;16.67;100.00
26487;BME280;14425;56.136;40.360;2023-05-24T05:41:04;99553.84;;;16.78;100.00
26487;BME280;14425;56.136;40.360;2023-05-24T05:43:30;99575.31;;;16.54;100.00
26487;BME280;14425;56.136;40.360;2023-05-24T05:45:56;99580.53;;;16.54;100.00
26487;BME280;14425;56.136;40.360;2023-05-24T05:48:24;99580.56;;;16.57;100.00
26487;BME280;14425;56.136;40.360;2023-05-24T05:50:52;99575.13;;;17.30;100.00
26487;BME280;14425;56.136;40.360;2023-05-24T05:53:18;99584.53;;;17.13;100.00
26487;BME280;14425;56.136;40.360;2023-05-24T05:55:43;99580.09;;;16.99;100.00
26487;BME280;14425;56.136;40.360;2023-05-24T05:58:09;99574.38;;;17.53;100.00
26487;BME280;14425;56.136;40.360;2023-05-24T06:00:36;99562.31;;;17.70;99.70
26487;BME280;14425;56.136;40.360;2023-05-24T06:03:01;99563.06;;;17.51;100.00
26487;BME280;14425;56.136;40.360;2023-05-24T06:05:27;99564.22;;;17.93;98.65
26487;BME280;14425;56.136;40.360;2023-05-24T06:07:52;99555.44;;;17.82;93.95
26487;BME280;14425;56.136;40.360;2023-05-24T06:10:21;99557.97;;;17.69;97.51
26487;BME280;14425;56.136;40.360;2023-05-24T06:12:46;99553.44;;;17.39;99.82
26487;BME280;14425;56.136;40.360;2023-05-24T06:15:12;99555.41;;;17.77;99.70
26487;BME280;14425;56.136;40.360;2023-05-24T06:17:38;99543.34;;;17.95;95.64
26487;BME280;14425;56.136;40.360;2023-05-24T06:20:06;99545.94;;;17.98;95.26
26487;BME280;14425;56.136;40.360;2023-05-24T06:22:42;99545.13;;;18.06;96.18
26487;BME280;14425;56.136;40.360;2023-05-24T06:25:09;99537.94;;;17.64;97.24
26487;BME280;14425;56.136;40.360;2023-05-24T06:27:38;99539.69;;;17.62;100.00
26487;BME280;14425;56.136;40.360;2023-05-24T06:30:05;99540.56;;;17.64;99.02
26487;BME280;14425;56.136;40.360;2023-05-24T06:32:31;99536.31;;;17.86;97.90
26487;BME280;14425;56.136;40.360;2023-05-24T06:34:56;99537.19;;;17.85;96.77
26487;BME280;14425;56.136;40.360;2023-05-24T06:37:22;99539.53;;;17.37;100.00
26487;BME280;14425;56.136;40.360;2023-05-24T06:39:50;99548.84;;;16.99;100.00
26487;BME280;14425;56.136;40.360;2023-05-24T06:42:16;99543.78;;;17.21;100.00
26487;BME280;14425;56.136;40.360;2023-05-24T06:44:41;99545.47;;;17.16;100.00
26487;BME280;14425;56.136;40.360;2023-05-24T06:47:07;99534.97;;;17.01;100.00
26487;BME280;14425;56.136;40.360;2023-05-24T06:49:33;99527.31;;;17.27;100.00
26487;BME280;14425;56.136;40.360;2023-05-24T06:51:59;99524.19;;;17.91;100.00
26487;BME280;14425;56.136;40.360;2023-05-24T06:54:24;99519.84;;;17.90;97.54
26487;BME280;14425;56.136;40.360;2023-05-24T06:56:50;99529.44;;;18.00;96.08
26487;BME280;14425;56.136;40.360;2023-05-24T06:59:15;99523.34;;;17.95;97.45
26487;BME280;14425;56.136;40.360;2023-05-24T07:01:41;99525.16;;;18.15;94.68
26487;BME280;14425;56.136;40.360;2023-05-24T07:04:08;99530.31;;;18.05;94.17
26487;BME280;14425;56.136;40.360;2023-05-24T07:06:35;99517.25;;;17.99;97.65
26487;BME280;14425;56.136;40.360;2023-05-24T07:09:02;99513.75;;;17.96;92.20
26487;BME280;14425;56.136;40.360;2023-05-24T07:11:29;99514.41;;;17.47;99.66
26487;BME280;14425;56.136;40.360;2023-05-24T07:13:55;99505.16;;;18.21;95.82
26487;BME280;14425;56.136;40.360;2023-05-24T07:16:21;99498.22;;;18.63;93.38
26487;BME280;14425;56.136;40.360;2023-05-24T07:18:46;99504.28;;;18.15;94.10
26487;BME280;14425;56.136;40.360;2023-05-24T07:21:12;99498.19;;;18.25;95.62
26487;BME280;14425;56.136;40.360;2023-05-24T07:23:37;99498.25;;;18.71;90.66
26487;BME280;14425;56.136;40.360;2023-05-24T07:26:04;99486.03;;;19.13;87.09
26487;BME280;14425;56.136;40.360;2023-05-24T07:28:29;99487.75;;;19.22;87.07
26487;BME280;14425;56.136;40.360;2023-05-24T07:30:55;99490.34;;;19.27;86.20
26487;BME280;14425;56.136;40.360;2023-05-24T07:33:21;99485.97;;;19.27;85.59
26487;BME280;14425;56.136;40.360;2023-05-24T07:35:46;99476.47;;;18.94;88.73
26487;BME280;14425;56.136;40.360;2023-05-24T07:38:16;99491.25;;;18.73;89.68
26487;BME280;14425;56.136;40.360;2023-05-24T07:40:42;99485.16;;;19.00;89.61
26487;BME280;14425;56.136;40.360;2023-05-24T07:43:08;99489.53;;;18.97;88.39
26487;BME280;14425;56.136;40.360;2023-05-24T07:45:34;99472.06;;;19.19;87.96
26487;BME280;14425;56.136;40.360;2023-05-24T07:47:59;99479.84;;;19.42;84.81
26487;BME280;14425;56.136;40.360;2023-05-24T07:50:25;99479.94;;;19.02;86.79
26487;BME280;14425;56.136;40.360;2023-05-24T07:52:55;99477.28;;;19.33;86.03
26487;BME280;14425;56.136;40.360;2023-05-24T07:55:20;99478.13;;;19.41;87.04
26487;BME280;14425;56.136;40.360;2023-05-24T07:57:46;99476.38;;;19.40;86.84
26487;BME280;14425;56.136;40.360;2023-05-24T08:00:12;99477.25;;;19.39;86.34
26487;BME280;14425;56.136;40.360;2023-05-24T08:02:41;99478.13;;;19.36;85.35
26487;BME280;14425;56.136;40.360;2023-05-24T08:05:13;99481.66;;;19.29;84.98
26487;BME280;14425;56.136;40.360;2023-05-24T08:07:39;99478.19;;;19.19;88.25
26487;BME280;14425;56.136;40.360;2023-05-24T08:10:07;99472.06;;;19.19;87.31
26487;BME280;14425;56.136;40.360;2023-05-24T08:12:33;99476.47;;;18.89;86.10
26487;BME280;14425;56.136;40.360;2023-05-24T08:14:59;99477.31;;;18.99;86.69
26487;BME280;14425;56.136;40.360;2023-05-24T08:17:25;99479.94;;;19.11;88.41
26487;BME280;14425;56.136;40.360;2023-05-24T08:19:51;99479.06;;;19.08;88.37
26487;BME280;14425;56.136;40.360;2023-05-24T08:22:17;99488.66;;;18.73;87.80
26487;BME280;14425;56.136;40.360;2023-05-24T08:24:42;99492.97;;;18.37;91.67
26487;BME280;14425;56.136;40.360;2023-05-24T08:27:08;99500.81;;;18.23;96.17
26487;BME280;14425;56.136;40.360;2023-05-24T08:29:35;99499.88;;;18.00;97.93
26487;BME280;14425;56.136;40.360;2023-05-24T08:32:01;99502.44;;;17.87;100.00
26487;BME280;14425;56.136;40.360;2023-05-24T08:34:27;99502.59;;;18.60;95.82
26487;BME280;14425;56.136;40.360;2023-05-24T08:36:55;99491.28;;;18.87;91.46
26487;BME280;14425;56.136;40.360;2023-05-24T08:39:20;99500.84;;;19.05;90.11
26487;BME280;14425;56.136;40.360;2023-05-24T08:41:46;99506.97;;;18.93;88.57
26487;BME280;14425;56.136;40.360;2023-05-24T08:44:11;99516.53;;;19.04;89.49
26487;BME280;14425;56.136;40.360;2023-05-24T08:49:13;99511.25;;;18.40;96.55
26487;BME280;14425;56.136;40.360;2023-05-24T08:51:39;99515.66;;;18.63;97.66
26487;BME280;14425;56.136;40.360;2023-05-24T08:54:05;99504.34;;;18.98;95.33
26487;BME280;14425;56.136;40.360;2023-05-24T08:56:32;99519.16;;;19.11;94.14
26487;BME280;14425;56.136;40.360;2023-05-24T08:58:58;99515.66;;;18.61;95.88
26487;BME280;14425;56.136;40.360;2023-05-24T09:01:24;99512.16;;;18.78;96.36
26487;BME280;14425;56.136;40.360;2023-05-24T09:03:50;99511.28;;;18.79;97.94
26487;BME280;14425;56.136;40.360;2023-05-24T09:06:17;99504.31;;;18.67;96.32
26487;BME280;14425;56.136;40.360;2023-05-24T09:08:44;99510.41;;;18.61;97.17
26487;BME280;14425;56.136;40.360;2023-05-24T09:11:10;99499.13;;;18.84;93.03
26487;BME280;14425;56.136;40.360;2023-05-24T09:13:36;99511.28;;;18.43;96.54
26487;BME280;14425;56.136;40.360;2023-05-24T09:16:02;99506.91;;;18.62;95.65
26487;BME280;14425;56.136;40.360;2023-05-24T09:18:28;99501.72;;;18.67;95.04
26487;BME280;14425;56.136;40.360;2023-05-24T09:20:53;99501.72;;;18.90;92.35
26487;BME280;14425;56.136;40.360;2023-05-24T09:23:19;99516.53;;;18.53;96.20
26487;BME280;14425;56.136;40.360;2023-05-24T09:25:46;99516.41;;;18.13;98.08
26487;BME280;14425;56.136;40.360;2023-05-24T09:28:13;99513.00;;;18.51;94.69
26487;BME280;14425;56.136;40.360;2023-05-24T09:30:44;99517.38;;;18.56;93.74
26487;BME280;14425;56.136;40.360;2023-05-24T09:33:10;99515.56;;;18.10;97.32
26487;BME280;14425;56.136;40.360;2023-05-24T09:35:41;99519.94;;;18.27;97.16
26487;BME280;14425;56.136;40.360;2023-05-24T09:38:15;99524.97;;;17.79;98.87
26487;BME280;14425;56.136;40.360;2023-05-24T09:40:42;99523.91;;;17.39;100.00
26487;BME280;14425;56.136;40.360;2023-05-24T09:43:08;99526.47;;;17.32;100.00
26487;BME280;14425;56.136;40.360;2023-05-24T09:45:41;99514.53;;;17.71;100.00
26487;BME280;14425;56.136;40.360;2023-05-24T09:48:12;99522.78;;;17.01;100.00
26487;BME280;14425;56.136;40.360;2023-05-24T09:50:38;99528.81;;;16.91;100.00
26487;BME280;14425;56.136;40.360;2023-05-24T09:53:04;99537.22;;;16.62;100.00
26487;BME280;14425;56.136;40.360;2023-05-24T09:55:35;99539.63;;;16.45;100.00
26487;BME280;14425;56.136;40.360;2023-05-24T09:58:03;99543.13;;;16.44;100.00
26487;BME280;14425;56.136;40.360;2023-05-24T10:00:36;99544.84;;;16.45;100.00
26487;BME280;14425;56.136;40.360;2023-05-24T10:03:05;99548.88;;;16.17;100.00
26487;BME280;14425;56.136;40.360;2023-05-24T10:05:35;99542.59;;;15.98;100.00
26487;BME280;14425;56.136;40.360;2023-05-24T10:08:01;99545.56;;;16.29;100.00
26487;BME280;14425;56.136;40.360;2023-05-24T10:10:31;99559.44;;;16.29;100.00
26487;BME280;14425;56.136;40.360;2023-05-24T10:12:58;99554.34;;;16.40;100.00
26487;BME280;14425;56.136;40.360;2023-05-24T10:15:25;99552.34;;;16.16;100.00
26487;BME280;14425;56.136;40.360;2023-05-24T10:17:52;99551.53;;;16.21;100.00
26487;BME280;14425;56.136;40.360;2023-05-24T10:20:18;99566.19;;;16.13;100.00
26487;BME280;14425;56.136;40.360;2023-05-24T10:22:45;99567.09;;;16.17;100.00
26487;BME280;14425;56.136;40.360;2023-05-24T10:25:22;99567.13;;;16.20;100.00
26487;BME280;14425;56.136;40.360;2023-05-24T10:27:54;99570.41;;;16.00;100.00
26487;BME280;14425;56.136;40.360;2023-05-24T10:32:58;99572.88;;;15.93;100.00
26487;BME280;14425;56.136;40.360;2023-05-24T10:35:24;99588.63;;;16.03;100.00
26487;BME280;14425;56.136;40.360;2023-05-24T10:37:52;99577.31;;;16.00;100.00
26487;BME280;14425;56.136;40.360;2023-05-24T10:40:20;99582.50;;;16.00;100.00
26487;BME280;14425;56.136;40.360;2023-05-24T10:42:47;99592.84;;;15.92;100.00
26487;BME280;14425;56.136;40.360;2023-05-24T10:45:29;99588.41;;;15.86;100.00
26487;BME280;14425;56.136;40.360;2023-05-24T10:50:39;99589.28;;;15.85;100.00
26487;BME280;14425;56.136;40.360;2023-05-24T10:53:15;99595.31;;;15.84;100.00
26487;BME280;14425;56.136;40.360;2023-05-24T10:55:51;99593.72;;;15.94;100.00
26487;BME280;14425;56.136;40.360;2023-05-24T10:58:18;99593.91;;;16.10;100.00
26487;BME280;14425;56.136;40.360;2023-05-24T11:00:44;99595.56;;;16.03;100.00
26487;BME280;14425;56.136;40.360;2023-05-24T11:03:10;99598.06;;;15.97;100.00
26487;BME280;14425;56.136;40.360;2023-05-24T11:08:13;99600.78;;;16.06;100.00
26487;BME280;14425;56.136;40.360;2023-05-24T11:10:39;99606.97;;;16.14;100.00
26487;BME280;14425;56.136;40.360;2023-05-24T11:13:09;99612.94;;;16.05;100.00
26487;BME280;14425;56.136;40.360;2023-05-24T11:15:35;99602.66;;;16.16;100.00
26487;BME280;14425;56.136;40.360;2023-05-24T11:20:43;99601.94;;;16.30;100.00
26487;BME280;14425;56.136;40.360;2023-05-24T11:23:13;99604.69;;;16.40;100.00
26487;BME280;14425;56.136;40.360;2023-05-24T11:25:39;99605.66;;;16.53;100.00
26487;BME280;14425;56.136;40.360;2023-05-24T11:28:07;99604.94;;;16.68;100.00
26487;BME280;14425;56.136;40.360;2023-05-24T11:30:54;99593.78;;;16.77;100.00
26487;BME280;14425;56.136;40.360;2023-05-24T11:33:21;99602.50;;;16.84;100.00
26487;BME280;14425;56.136;40.360;2023-05-24T11:35:50;99598.28;;;16.93;100.00
26487;BME280;14425;56.136;40.360;2023-05-24T11:38:17;99599.22;;;17.05;100.00
26487;BME280;14425;56.136;40.360;2023-05-24T11:40:44;99596.06;;;17.43;100.00
26487;BME280;14425;56.136;40.360;2023-05-24T11:43:13;99593.59;;;17.67;100.00
26487;BME280;14425;56.136;40.360;2023-05-24T11:45:40;99589.31;;;17.79;100.00
26487;BME280;14425;56.136;40.360;2023-05-24T11:48:07;99591.88;;;17.71;100.00
26487;BME280;14425;56.136;40.360;2023-05-24T11:50:44;99581.34;;;17.52;100.00
26487;BME280;14425;56.136;40.360;2023-05-24T11:53:11;99583.22;;;17.73;100.00
26487;BME280;14425;56.136;40.360;2023-05-24T11:55:37;99580.75;;;17.97;100.00
26487;BME280;14425;56.136;40.360;2023-05-24T11:58:10;99580.78;;;18.10;100.00
26487;BME280;14425;56.136;40.360;2023-05-24T12:00:36;99565.31;;;19.25;97.07
26487;BME280;14425;56.136;40.360;2023-05-24T12:03:02;99570.50;;;19.46;90.69
26487;BME280;14425;56.136;40.360;2023-05-24T12:05:32;99568.47;;;20.30;86.90
26487;BME280;14425;56.136;40.360;2023-05-24T12:08:06;99574.63;;;20.23;85.24
26487;BME280;14425;56.136;40.360;2023-05-24T12:10:38;99576.03;;;20.81;82.11
26487;BME280;14425;56.136;40.360;2023-05-24T12:13:05;99575.91;;;20.95;77.77
26487;BME280;14425;56.136;40.360;2023-05-24T12:15:33;99585.78;;;20.57;79.92
26487;BME280;14425;56.136;40.360;2023-05-24T12:17:59;99581.50;;;20.47;77.98
26487;BME280;14425;56.136;40.360;2023-05-24T12:20:28;99575.16;;;20.82;79.03
26487;BME280;14425;56.136;40.360;2023-05-24T12:22:54;99574.50;;;20.44;79.29
26487;BME280;14425;56.136;40.360;2023-05-24T12:25:21;99575.75;;;21.15;76.91
26487;BME280;14425;56.136;40.360;2023-05-24T12:27:54;99582.13;;;20.83;76.08
26487;BME280;14425;56.136;40.360;2023-05-24T12:30:22;99572.47;;;20.90;75.19
26487;BME280;14425;56.136;40.360;2023-05-24T12:32:47;99570.63;;;21.02;75.08
26487;BME280;14425;56.136;40.360;2023-05-24T12:35:15;99569.50;;;21.28;74.90
26487;BME280;14425;56.136;40.360;2023-05-24T12:37:41;99564.25;;;22.12;70.82
26487;BME280;14425;56.136;40.360;2023-05-24T12:40:18;99571.50;;;22.58;68.53
26487;BME280;14425;56.136;40.360;2023-05-24T12:42:55;99558.00;;;22.83;66.08
26487;BME280;14425;56.136;40.360;2023-05-24T12:45:26;99571.75;;;22.41;69.13
26487;BME280;14425;56.136;40.360;2023-05-24T12:47:56;99562.69;;;21.97;70.73
26487;BME280;14425;56.136;40.360;2023-05-24T12:50:27;99556.66;;;22.54;68.62
26487;BME280;14425;56.136;40.360;2023-05-24T12:52:52;99555.69;;;22.63;65.61
26487;BME280;14425;56.136;40.360;2023-05-24T12:55:22;99548.34;;;23.36;61.15
26487;BME280;14425;56.136;40.360;2023-05-24T12:57:47;99538.31;;;23.05;63.64
26487;BME280;14425;56.136;40.360;2023-05-24T13:00:25;99547.03;;;23.11;61.20
26487;BME280;14425;56.136;40.360;2023-05-24T13:02:55;99569.03;;;22.47;63.43
26487;BME280;14425;56.136;40.360;2023-05-24T13:05:24;99562.09;;;21.72;67.27
26487;BME280;14425;56.136;40.360;2023-05-24T13:07:54;99568.06;;;20.95;71.80
26487;BME280;14425;56.136;40.360;2023-05-24T13:10:23;99564.75;;;20.73;75.24
26487;BME280;14425;56.136;40.360;2023-05-24T13:12:49;99560.00;;;21.15;74.67